Time;durP1;ratioP1;P1;durP2;ratioP2;P2;SDS_P1;SDS_P2;PMS_P1;PMS_P2;Temp;Humidity;BMP_temperature;BMP_pressure;BME280_temperature;BME280_humidity;BME280_pressure;Samples;Min_cycle;Max_cycle;Signal;HPM_P1;HPM_P2
2021/11/15 06:30:45;;;;;;;13.55;6.07;;;;;;;5.81;100.00;99590.38;5090809;27;20404;-80
2021/11/15 06:33:12;;;;;;;16.30;6.82;;;;;;;5.90;100.00;99595.91;5088780;28;20048;-81
2021/11/15 06:35:39;;;;;;;14.57;7.00;;;;;;;5.97;100.00;99595.22;5081719;28;20049;-81
2021/11/15 06:38:05;;;;;;;17.55;6.90;;;;;;;6.19;100.00;99604.84;5089156;28;20470;-81
2021/11/15 06:40:32;;;;;;;13.25;6.50;;;;;;;6.24;100.00;99607.09;5089038;28;20049;-81
2021/11/15 06:42:59;;;;;;;16.50;8.13;;;;;;;6.27;100.00;99604.09;5089632;28;20088;-80
2021/11/15 06:45:26;;;;;;;14.02;6.45;;;;;;;6.35;100.00;99597.97;5089510;28;20094;-81
2021/11/15 06:47:55;;;;;;;15.45;6.90;;;;;;;6.27;100.00;99600.56;5089554;28;20048;-81
2021/11/15 06:50:22;;;;;;;14.35;6.57;;;;;;;6.30;100.00;99603.81;5079611;28;20049;-81
2021/11/15 06:52:50;;;;;;;20.23;7.25;;;;;;;6.32;100.00;99601.81;5089446;28;20143;-81
2021/11/15 06:55:19;;;;;;;12.30;6.80;;;;;;;6.38;100.00;99603.94;5089612;28;20048;-81
2021/11/15 06:57:46;;;;;;;12.52;6.63;;;;;;;6.33;100.00;99611.59;5089452;28;20448;-81
2021/11/15 07:00:18;;;;;;;15.48;6.68;;;;;;;6.35;100.00;99606.94;5088215;28;20048;-81
2021/11/15 07:02:45;;;;;;;11.30;6.28;;;;;;;6.32;100.00;99611.75;5088387;28;20418;-81
2021/11/15 07:05:15;;;;;;;13.52;7.15;;;;;;;6.34;100.00;99602.53;5089203;28;20048;-81
2021/11/15 07:07:42;;;;;;;11.05;6.18;;;;;;;6.38;100.00;99605.75;5087657;28;20505;-81
2021/11/15 07:10:10;;;;;;;12.57;6.75;;;;;;;6.33;100.00;99605.38;5088900;28;20076;-81
2021/11/15 07:12:37;;;;;;;11.75;6.43;;;;;;;6.40;100.00;99597.50;5088809;28;20052;-81
2021/11/15 07:15:05;;;;;;;12.57;7.00;;;;;;;6.36;100.00;99597.81;5085896;28;20048;-80
2021/11/15 07:17:32;;;;;;;13.35;6.75;;;;;;;6.38;100.00;99594.97;5068960;28;20053;-81
2021/11/15 07:19:59;;;;;;;13.23;6.40;;;;;;;6.31;100.00;99589.31;5068649;28;20045;-80
2021/11/15 07:22:27;;;;;;;18.42;7.03;;;;;;;6.36;100.00;99595.09;5068126;28;20069;-80
2021/11/15 07:24:54;;;;;;;14.27;6.90;;;;;;;6.38;100.00;99592.25;5080874;28;20048;-81
2021/11/15 07:27:20;;;;;;;11.10;5.97;;;;;;;6.38;100.00;99581.47;5088292;28;20044;-81
2021/11/15 07:29:47;;;;;;;14.88;7.15;;;;;;;6.41;100.00;99593.81;5087830;28;20079;-81
2021/11/15 07:32:14;;;;;;;11.73;5.30;;;;;;;6.34;100.00;99601.69;5088239;28;20277;-81
2021/11/15 07:34:41;;;;;;;15.82;6.45;;;;;;;6.42;100.00;99600.94;5088693;28;20518;-81
2021/11/15 07:37:08;;;;;;;14.05;6.70;;;;;;;6.46;100.00;99599.63;5088752;28;20121;-81
2021/11/15 07:39:42;;;;;;;13.65;6.40;;;;;;;6.44;100.00;99601.63;5086877;28;20056;-81
2021/11/15 07:42:10;;;;;;;13.13;6.05;;;;;;;6.44;100.00;99607.03;5068474;28;20052;-81
2021/11/15 07:44:37;;;;;;;10.60;5.40;;;;;;;6.32;100.00;99604.53;5074621;28;20044;-80
2021/11/15 07:47:05;;;;;;;12.82;6.32;;;;;;;6.45;100.00;99611.44;5074821;28;20066;-81
2021/11/15 07:49:32;;;;;;;11.38;5.50;;;;;;;6.44;100.00;99607.88;5074876;28;20044;-81
2021/11/15 07:51:59;;;;;;;11.07;5.60;;;;;;;6.43;100.00;99613.44;5072777;28;20091;-80
2021/11/15 07:54:26;;;;;;;15.80;5.78;;;;;;;6.40;100.00;99611.03;5073371;28;20052;-81
2021/11/15 07:56:54;;;;;;;10.60;5.72;;;;;;;6.34;100.00;99620.59;5074550;28;20049;-81
2021/11/15 07:59:21;;;;;;;14.50;6.32;;;;;;;6.43;100.00;99627.81;5073961;28;20044;-81
2021/11/15 08:01:48;;;;;;;11.90;5.70;;;;;;;6.45;100.00;99620.38;5074318;28;20044;-81
2021/11/15 08:04:15;;;;;;;14.55;5.53;;;;;;;6.38;100.00;99632.78;5074600;28;20049;-81
2021/11/15 08:06:42;;;;;;;12.50;6.10;;;;;;;6.46;100.00;99634.72;5074402;28;20099;-81
2021/11/15 08:09:09;;;;;;;10.77;5.30;;;;;;;6.43;100.00;99625.09;5065900;28;20098;-81
2021/11/15 08:11:36;;;;;;;12.93;5.85;;;;;;;6.56;100.00;99630.16;5074174;28;20048;-81
2021/11/15 08:14:05;;;;;;;11.48;5.55;;;;;;;6.51;100.00;99640.56;5070522;28;20098;-81
2021/11/15 08:16:32;;;;;;;14.65;6.45;;;;;;;6.54;100.00;99637.56;5055461;28;20492;-81
2021/11/15 08:18:59;;;;;;;10.75;5.60;;;;;;;6.51;100.00;99636.00;5054752;28;20555;-81
2021/11/15 08:21:26;;;;;;;11.00;5.82;;;;;;;6.45;100.00;99630.34;5054135;28;20130;-81
2021/11/15 08:23:53;;;;;;;13.40;6.25;;;;;;;6.44;100.00;99621.38;5054405;28;20118;-81
2021/11/15 08:26:37;;;;;;;9.65;5.32;;;;;;;6.47;100.00;99629.19;5054857;28;20041;-81
2021/11/15 08:29:07;;;;;;;12.63;6.45;;;;;;;6.46;100.00;99621.22;5073068;28;20094;-80
2021/11/15 08:31:34;;;;;;;;;;;;;;;6.52;100.00;99620.66;5054365;28;20057;-81
2021/11/15 08:34:02;;;;;;;13.32;6.22;;;;;;;6.51;100.00;99622.50;5053811;28;19966;-81
2021/11/15 08:36:29;;;;;;;12.02;5.28;;;;;;;6.47;100.00;99631.03;5053990;28;20052;-81
2021/11/15 08:38:58;;;;;;;12.50;5.15;;;;;;;6.54;100.00;99624.91;5053533;28;20102;-79
2021/11/15 08:41:29;;;;;;;13.05;5.63;;;;;;;6.50;100.00;99623.53;5053090;28;20492;-80
2021/11/15 08:43:57;;;;;;;13.68;6.32;;;;;;;6.60;100.00;99630.72;5067593;28;20053;-80
2021/11/15 08:46:30;;;;;;;14.07;6.18;;;;;;;6.51;100.00;99636.00;5072569;28;20084;-80
2021/11/15 08:48:58;;;;;;;11.35;5.82;;;;;;;6.36;100.00;99626.69;5073679;28;20094;-80
2021/11/15 08:51:26;;;;;;;13.23;7.15;;;;;;;6.50;100.00;99636.16;5068955;28;20049;-80
2021/11/15 08:53:55;;;;;;;11.63;5.32;;;;;;;6.57;100.00;99633.72;5067257;28;20419;-80
2021/11/15 08:56:22;;;;;;;12.18;6.47;;;;;;;6.66;100.00;99635.53;5073500;28;20094;-80
2021/11/15 08:58:50;;;;;;;12.35;5.45;;;;;;;6.66;100.00;99636.38;5072690;28;20044;-80
2021/11/15 09:01:17;;;;;;;11.50;5.65;;;;;;;6.54;100.00;99645.69;5073363;28;20388;-80
2021/11/15 09:03:50;;;;;;;16.17;5.78;;;;;;;6.55;100.00;99633.88;5073205;28;20051;-80
2021/11/15 09:06:17;;;;;;;16.63;6.55;;;;;;;6.59;100.00;99637.97;5072872;28;20135;-80
2021/11/15 09:08:45;;;;;;;12.90;6.05;;;;;;;6.61;100.00;99632.41;5072057;28;20053;-80
2021/11/15 09:11:12;;;;;;;11.85;5.90;;;;;;;6.60;100.00;99636.97;5072764;28;20102;-80
2021/11/15 09:13:41;;;;;;;16.50;6.70;;;;;;;6.59;100.00;99620.91;5073075;28;20106;-80
2021/11/15 09:16:08;;;;;;;13.10;6.10;;;;;;;6.59;100.00;99619.06;5072483;28;20059;-80
2021/11/15 09:18:36;;;;;;;13.40;6.22;;;;;;;6.74;100.00;99630.22;5073072;28;20301;-80
2021/11/15 09:21:07;;;;;;;14.77;6.75;;;;;;;6.70;100.00;99628.84;5073021;28;20067;-80
2021/11/15 09:23:34;;;;;;;11.75;5.88;;;;;;;6.70;100.00;99632.38;5072838;28;20057;-79
2021/11/15 09:26:01;;;;;;;15.70;6.15;;;;;;;6.58;100.00;99630.88;5063417;28;20151;-81
2021/11/15 09:28:28;;;;;;;14.02;6.45;;;;;;;6.59;100.00;99620.91;5070830;28;20052;-80
2021/11/15 09:30:54;;;;;;;12.98;6.30;;;;;;;6.53;100.00;99619.66;5072205;28;20381;-80
2021/11/15 09:33:21;;;;;;;15.95;6.60;;;;;;;6.58;100.00;99621.91;5072285;28;20083;-80
2021/11/15 09:35:51;;;;;;;14.70;6.50;;;;;;;6.65;100.00;99610.34;5072731;28;20102;-80
2021/11/15 09:38:20;;;;;;;16.77;6.50;;;;;;;6.78;100.00;99628.09;5072481;28;20060;-80
2021/11/15 09:40:50;;;;;;;14.35;6.13;;;;;;;6.83;100.00;99629.31;5072991;28;20048;-80
2021/11/15 09:43:17;;;;;;;10.88;5.93;;;;;;;6.77;100.00;99631.78;5072253;28;20131;-80
2021/11/15 09:45:44;;;;;;;12.68;6.93;;;;;;;6.86;100.00;99631.72;5059871;28;20050;-81
2021/11/15 09:48:11;;;;;;;14.15;6.97;;;;;;;6.85;100.00;99632.75;5072603;28;20048;-80
2021/11/15 09:50:39;;;;;;;16.40;6.95;;;;;;;6.85;100.00;99638.16;5072338;28;20045;-81
2021/11/15 09:53:08;;;;;;;15.20;7.18;;;;;;;6.83;100.00;99642.84;5072434;28;20094;-80
2021/11/15 09:55:37;;;;;;;18.13;7.67;;;;;;;6.79;100.00;99630.66;5072507;28;20045;-80
2021/11/15 09:58:04;;;;;;;15.60;6.72;;;;;;;6.82;100.00;99632.19;5071903;28;20344;-80
2021/11/15 10:00:34;;;;;;;14.93;7.13;;;;;;;6.85;100.00;99626.47;5072354;28;20499;-80
2021/11/15 10:03:02;;;;;;;12.45;6.20;;;;;;;6.82;100.00;99622.25;5070549;28;20553;-80
2021/11/15 10:05:30;;;;;;;14.18;6.68;;;;;;;6.73;100.00;99612.34;5072163;28;20056;-80
2021/11/15 10:07:59;;;;;;;16.73;6.80;;;;;;;6.80;100.00;99621.53;5072532;28;20068;-80
2021/11/15 10:10:40;;;;;;;17.02;7.43;;;;;;;6.81;100.00;99614.28;5072097;28;20044;-80
2021/11/15 10:13:18;;;;;;;16.58;7.03;;;;;;;6.74;100.00;99619.41;5070136;28;20127;-80
2021/11/15 10:15:52;;;;;;;15.23;7.30;;;;;;;6.77;100.00;99604.78;5072725;28;20139;-80
2021/11/15 10:18:31;;;;;;;16.90;7.32;;;;;;;6.69;100.00;99616.31;5069956;28;20060;-80
2021/11/15 10:21:00;;;;;;;15.48;7.50;;;;;;;6.79;100.00;99605.47;5072507;28;20123;-80
2021/11/15 10:23:34;;;;;;;19.85;7.60;;;;;;;6.79;100.00;99603.63;5071952;28;20068;-80
2021/11/15 10:26:08;;;;;;;22.80;9.88;;;;;;;6.86;100.00;99588.50;5071947;28;20052;-80
2021/11/15 10:28:35;;;;;;;16.48;7.57;;;;;;;6.93;100.00;99596.88;5065928;28;20059;-81
2021/11/15 10:31:02;;;;;;;16.40;7.47;;;;;;;6.95;100.00;99586.75;5072135;28;20472;-80
2021/11/15 10:33:38;;;;;;;20.88;7.75;;;;;;;7.04;100.00;99598.50;5071720;28;20052;-80
2021/11/15 10:36:05;;;;;;;18.23;7.40;;;;;;;7.01;100.00;99599.66;5072147;28;20055;-80
2021/11/15 10:38:44;;;;;;;15.15;7.07;;;;;;;6.99;100.00;99601.66;5071837;28;20052;-80
2021/11/15 10:41:18;;;;;;;19.50;8.23;;;;;;;6.90;100.00;99607.97;5072249;28;20048;-80
2021/11/15 10:43:46;;;;;;;18.38;8.50;;;;;;;6.92;100.00;99605.97;5066498;28;20137;-80
2021/11/15 10:46:30;;;;;;;15.88;6.80;;;;;;;6.85;100.00;99591.34;5062574;28;20049;-80
2021/11/15 10:48:58;;;;;;;16.38;7.30;;;;;;;6.86;100.00;99599.28;5072142;28;20052;-80
2021/11/15 10:51:42;;;;;;;17.75;7.85;;;;;;;6.85;100.00;99594.03;5070409;28;20127;-80
2021/11/15 10:54:48;;;;;;;16.42;7.13;;;;;;;6.88;100.00;99589.22;5072059;28;20155;-81
2021/11/15 10:57:35;;;;;;;18.02;7.97;;;;;;;6.91;100.00;99588.91;5071814;28;20110;-80
2021/11/15 11:00:26;;;;;;;14.75;7.50;;;;;;;6.93;100.00;99583.34;5068854;28;20049;-80
2021/11/15 11:02:55;;;;;;;18.83;7.93;;;;;;;7.00;100.00;99592.56;5065973;28;20048;-80
2021/11/15 11:05:24;;;;;;;14.88;7.43;;;;;;;7.01;100.00;99586.13;5070295;28;20110;-80
2021/11/15 11:08:07;;;;;;;17.40;8.35;;;;;;;7.02;100.00;99587.00;5071799;28;20040;-80
2021/11/15 11:10:41;;;;;;;18.25;8.02;;;;;;;7.02;100.00;99574.31;5071715;28;20051;-80
2021/11/15 11:13:11;;;;;;;18.33;8.25;;;;;;;6.97;100.00;99567.66;5069641;28;20507;-80
2021/11/15 11:15:42;;;;;;;17.20;8.13;;;;;;;7.04;100.00;99576.88;5072650;28;20152;-80
2021/11/15 11:18:14;;;;;;;18.67;7.75;;;;;;;7.11;100.00;99579.84;5071982;28;20055;-81
2021/11/15 11:23:48;;;;;;;21.52;8.80;;;;;;;7.22;100.00;99571.50;5041375;28;20044;-81
2021/11/15 11:26:18;;;;;;;19.40;8.48;;;;;;;7.20;100.00;99563.53;5075458;28;20556;-80
2021/11/15 11:28:49;;;;;;;21.58;8.50;;;;;;;7.21;100.00;99570.66;5061268;28;20114;-80
2021/11/15 11:31:17;;;;;;;19.05;8.73;;;;;;;7.17;100.00;99579.22;5063709;28;20036;-80
2021/11/15 11:33:45;;;;;;;22.05;9.10;;;;;;;7.10;100.00;99578.97;5071632;28;20052;-80
2021/11/15 11:36:13;;;;;;;19.48;8.13;;;;;;;7.08;100.00;99583.69;5074878;28;20052;-80
2021/11/15 11:38:41;;;;;;;18.63;8.55;;;;;;;7.02;100.00;99571.63;5074966;28;20044;-81
2021/11/15 11:41:09;;;;;;;25.13;9.30;;;;;;;7.14;100.00;99569.56;5075076;28;20044;-80
2021/11/15 11:43:36;;;;;;;17.52;8.23;;;;;;;7.17;100.00;99571.94;5074867;28;20052;-80
2021/11/15 11:46:05;;;;;;;18.85;8.63;;;;;;;7.16;100.00;99572.09;5072753;28;20044;-80
2021/11/15 11:48:32;;;;;;;21.15;8.35;;;;;;;7.27;100.00;99577.28;5074898;28;20064;-80
2021/11/15 11:50:59;;;;;;;19.65;8.43;;;;;;;7.15;100.00;99568.56;5074995;28;20098;-80
2021/11/15 11:53:29;;;;;;;21.13;8.98;;;;;;;7.17;100.00;99561.13;5074604;28;20071;-80
2021/11/15 11:55:57;;;;;;;17.23;8.40;;;;;;;7.15;100.00;99563.16;5075324;28;20135;-80
2021/11/15 11:58:26;;;;;;;21.60;9.10;;;;;;;7.08;100.00;99557.50;5074596;28;20708;-80
2021/11/15 12:00:54;;;;;;;18.88;8.57;;;;;;;7.12;100.00;99559.88;5071617;28;20036;-80
2021/11/15 12:03:24;;;;;;;21.80;8.80;;;;;;;7.10;100.00;99549.22;5074286;28;20079;-80
2021/11/15 12:05:51;;;;;;;22.23;10.13;;;;;;;7.11;100.00;99539.28;5074680;28;20044;-80
2021/11/15 12:08:18;;;;;;;22.40;10.18;;;;;;;7.15;100.00;99536.13;5057727;28;20102;-80
2021/11/15 12:10:53;;;;;;;21.38;10.50;;;;;;;7.10;100.00;99543.81;5054283;28;20045;-81
2021/11/15 12:13:23;;;;;;;23.35;10.18;;;;;;;7.23;100.00;99538.88;5062966;28;20513;-81
2021/11/15 12:15:58;;;;;;;21.08;8.80;;;;;;;7.31;100.00;99543.53;5074178;28;20060;-80
2021/11/15 12:18:28;;;;;;;22.20;10.27;;;;;;;7.26;100.00;99538.56;5074448;28;20580;-80
2021/11/15 12:21:17;;;;;;;21.10;9.60;;;;;;;7.23;100.00;99540.75;5074359;28;20052;-80
2021/11/15 12:24:07;;;;;;;16.90;9.00;;;;;;;7.30;98.22;99539.13;5053884;28;20049;-81
2021/11/15 12:26:40;;;;;;;19.25;8.85;;;;;;;7.27;98.50;99536.72;5054245;28;20053;-80
2021/11/15 12:29:26;;;;;;;18.08;9.27;;;;;;;7.35;98.18;99538.66;5055110;28;20450;-81
2021/11/15 12:31:55;;;;;;;17.50;8.82;;;;;;;7.28;98.88;99535.72;5068108;28;20050;-81
2021/11/15 12:34:27;;;;;;;22.55;9.98;;;;;;;7.17;98.67;99542.22;5073751;28;20052;-80
2021/11/15 12:36:55;;;;;;;17.17;8.27;;;;;;;7.33;99.27;99535.25;5065894;28;20072;-80
2021/11/15 12:39:24;;;;;;;21.00;9.70;;;;;;;7.37;98.55;99534.78;5053747;28;20103;-81
2021/11/15 12:41:52;;;;;;;17.90;9.35;;;;;;;7.37;98.01;99531.25;5053377;28;20045;-81
2021/11/15 12:44:28;;;;;;;14.88;8.05;;;;;;;7.35;98.19;99536.81;5053908;28;20041;-80
2021/11/15 12:46:58;;;;;;;18.50;8.90;;;;;;;7.40;97.37;99539.88;5067727;28;20135;-80
2021/11/15 12:49:33;;;;;;;20.13;10.02;;;;;;;7.28;99.18;99529.47;5074010;28;20132;-80
2021/11/15 12:52:21;;;;;;;18.25;9.23;;;;;;;7.31;99.42;99523.75;5072690;28;20045;-82
2021/11/15 12:54:50;;;;;;;21.27;9.35;;;;;;;7.30;98.03;99517.50;5073712;28;20083;-80
2021/11/15 12:57:37;;;;;;;18.83;8.83;;;;;;;7.41;97.92;99532.63;5073713;28;20126;-80
2021/11/15 13:00:15;;;;;;;16.08;8.23;;;;;;;7.39;98.90;99531.91;5064375;28;20360;-79
2021/11/15 13:02:46;;;;;;;16.67;8.63;;;;;;;7.26;98.60;99516.09;5073581;28;20056;-81
2021/11/15 13:05:14;;;;;;;14.70;7.95;;;;;;;7.34;99.62;99518.88;5074152;28;20159;-82
2021/11/15 13:07:41;;;;;;;18.70;9.40;;;;;;;7.31;98.54;99515.63;5072833;28;20048;-81
2021/11/15 13:10:08;;;;;;;17.35;9.05;;;;;;;7.34;99.45;99509.91;5073722;28;20055;-81
2021/11/15 13:12:37;;;;;;;18.67;8.82;;;;;;;7.38;97.93;99505.91;5073197;28;20142;-82
2021/11/15 13:15:06;;;;;;;17.90;9.07;;;;;;;7.41;98.60;99508.28;5073044;28;20056;-82
2021/11/15 13:17:34;;;;;;;17.80;9.10;;;;;;;7.44;98.10;99502.56;5073288;28;20057;-81
2021/11/15 13:20:03;;;;;;;22.55;10.98;;;;;;;7.37;98.32;99499.63;5068889;28;20057;-81
2021/11/15 13:22:32;;;;;;;21.38;10.25;;;;;;;7.33;99.38;99508.19;5070965;28;20126;-81
2021/11/15 13:24:59;;;;;;;23.02;9.82;;;;;;;7.40;98.26;99510.13;5073242;28;20143;-81
2021/11/15 13:27:26;;;;;;;25.05;11.45;;;;;;;7.31;99.76;99502.94;5072712;28;20048;-81
2021/11/15 13:29:54;;;;;;;24.65;10.48;;;;;;;7.26;99.23;99508.00;5072970;28;20052;-81
2021/11/15 13:32:22;;;;;;;24.02;11.18;;;;;;;7.20;100.00;99495.09;5065560;28;20051;-81
2021/11/15 13:34:51;;;;;;;21.02;9.98;;;;;;;7.22;100.00;99498.47;5072767;28;20067;-81
2021/11/15 13:37:17;;;;;;;22.55;11.05;;;;;;;7.33;99.37;99505.50;5072587;28;20044;-82
2021/11/15 13:39:47;;;;;;;22.75;10.93;;;;;;;7.20;99.56;99493.22;5071956;28;20106;-81
2021/11/15 13:42:14;;;;;;;20.27;10.50;;;;;;;7.28;100.00;99499.72;5062870;28;20091;-81
2021/11/15 13:44:42;;;;;;;20.08;9.70;;;;;;;7.30;100.00;99501.28;5072499;28;20293;-81
2021/11/15 13:47:10;;;;;;;28.10;10.88;;;;;;;7.32;99.71;99506.53;5072796;28;20534;-81
2021/11/15 13:49:37;;;;;;;23.67;9.80;;;;;;;7.28;100.00;99508.66;5072729;28;20045;-82
2021/11/15 13:52:06;;;;;;;23.40;10.80;;;;;;;7.23;100.00;99500.19;5072132;28;20091;-81
2021/11/15 13:54:36;;;;;;;23.45;10.60;;;;;;;7.27;99.67;99509.66;5072277;28;20507;-81
2021/11/15 13:57:05;;;;;;;23.42;10.30;;;;;;;7.21;99.57;99505.75;5059737;28;20079;-81
2021/11/15 13:59:32;;;;;;;29.10;11.60;;;;;;;7.22;99.96;99506.59;5072412;28;20118;-81
2021/11/15 14:01:59;;;;;;;21.35;9.60;;;;;;;7.11;100.00;99506.84;5072187;28;20461;-81
2021/11/15 14:04:26;;;;;;;23.23;10.25;;;;;;;7.09;100.00;99504.25;5072778;28;20052;-81
2021/11/15 14:06:52;;;;;;;22.02;10.38;;;;;;;7.12;100.00;99503.97;5072114;28;20052;-81
2021/11/15 14:09:19;;;;;;;24.33;10.48;;;;;;;7.09;100.00;99509.66;5072495;28;20105;-81
2021/11/15 14:11:46;;;;;;;22.45;9.45;;;;;;;7.16;100.00;99507.22;5071225;28;20045;-81
2021/11/15 14:14:14;;;;;;;24.27;10.30;;;;;;;7.17;99.82;99512.47;5070970;28;20460;-82
2021/11/15 14:16:41;;;;;;;23.25;10.38;;;;;;;7.19;99.04;99512.31;5072291;28;20368;-81
2021/11/15 14:19:08;;;;;;;22.30;9.68;;;;;;;7.17;100.00;99515.16;5072141;28;20098;-81
2021/11/15 14:21:34;;;;;;;18.88;9.00;;;;;;;7.23;100.00;99514.53;5071804;28;20075;-81
2021/11/15 14:24:01;;;;;;;24.20;10.80;;;;;;;7.21;100.00;99513.88;5072276;28;20166;-81
2021/11/15 14:26:28;;;;;;;23.08;10.75;;;;;;;7.24;99.38;99515.38;5071606;28;20053;-81
2021/11/15 14:28:55;;;;;;;25.83;10.20;;;;;;;7.07;100.00;99504.41;5071991;28;20491;-81
2021/11/15 14:31:23;;;;;;;18.85;9.30;;;;;;;6.99;100.00;99498.09;5064561;28;20395;-82
2021/11/15 14:33:50;;;;;;;22.23;9.52;;;;;;;7.02;100.00;99495.09;5071710;28;20531;-81
2021/11/15 14:36:17;;;;;;;20.60;9.52;;;;;;;7.12;99.42;99500.41;5071974;28;20048;-81
2021/11/15 14:38:44;;;;;;;24.52;9.70;;;;;;;7.15;100.00;99505.50;5072053;28;20484;-81
2021/11/15 14:41:11;;;;;;;25.73;10.13;;;;;;;7.08;100.00;99499.88;5060920;28;20510;-81
2021/11/15 14:43:38;;;;;;;21.85;9.52;;;;;;;7.11;100.00;99509.53;5051602;28;20146;-81
2021/11/15 14:46:05;;;;;;;25.23;9.85;;;;;;;7.01;100.00;99510.44;5061656;28;20052;-81
2021/11/15 14:48:33;;;;;;;20.90;10.32;;;;;;;6.91;100.00;99501.56;5071948;28;20048;-81
2021/11/15 14:51:00;;;;;;;25.83;10.23;;;;;;;6.99;100.00;99515.16;5073168;28;20052;-81
2021/11/15 14:53:27;;;;;;;22.88;10.48;;;;;;;7.00;99.80;99510.59;5075664;28;20480;-81
2021/11/15 14:55:54;;;;;;;17.98;8.90;;;;;;;6.96;99.87;99501.94;5064747;28;20044;-81
2021/11/15 14:58:21;;;;;;;19.10;9.38;;;;;;;7.05;100.00;99514.53;5055934;28;20450;-81
2021/11/15 15:00:48;;;;;;;19.05;9.50;;;;;;;6.93;100.00;99513.06;5055954;28;20053;-81
2021/11/15 15:03:15;;;;;;;21.67;9.95;;;;;;;6.98;100.00;99507.22;5066880;28;20048;-81
2021/11/15 15:05:43;;;;;;;22.35;10.07;;;;;;;6.93;99.74;99487.91;5075599;28;20049;-81
2021/11/15 15:08:11;;;;;;;20.23;9.38;;;;;;;7.03;100.00;99494.94;5075700;28;20048;-81
2021/11/15 15:10:38;;;;;;;23.25;10.50;;;;;;;7.06;99.90;99504.56;5075533;28;20126;-81
2021/11/15 15:13:06;;;;;;;18.45;9.95;;;;;;;6.88;100.00;99494.63;5075462;28;20045;-81
2021/11/15 15:15:34;;;;;;;22.17;9.18;;;;;;;6.91;100.00;99517.78;5075442;28;20048;-81
2021/11/15 15:18:02;;;;;;;18.20;8.88;;;;;;;6.94;100.00;99517.47;5070719;28;20087;-81
2021/11/15 15:20:34;;;;;;;22.15;10.00;;;;;;;6.84;100.00;99498.63;5075398;28;20136;-81
2021/11/15 15:23:04;;;;;;;24.02;10.38;;;;;;;6.87;100.00;99508.28;5075162;28;20048;-81
2021/11/15 15:25:31;;;;;;;20.80;8.98;;;;;;;6.91;100.00;99506.97;5075218;28;20500;-81
2021/11/15 15:28:02;;;;;;;17.60;9.30;;;;;;;6.89;100.00;99503.56;5075467;28;20086;-81
2021/11/15 15:30:29;;;;;;;17.98;9.45;;;;;;;6.85;100.00;99500.31;5075094;28;20507;-81
2021/11/15 15:32:56;;;;;;;19.80;9.90;;;;;;;6.89;100.00;99507.13;5061479;28;20098;-81
2021/11/15 15:35:26;;;;;;;17.95;9.90;;;;;;;7.03;100.00;99497.63;5075341;28;20041;-81
2021/11/15 15:37:54;;;;;;;20.58;9.57;;;;;;;7.01;100.00;99496.91;5074764;28;20052;-81
2021/11/15 15:40:24;;;;;;;21.73;10.32;;;;;;;6.95;99.60;99483.19;5075241;28;20127;-81
2021/11/15 15:42:53;;;;;;;15.45;8.45;;;;;;;6.94;100.00;99497.69;5075162;28;20110;-81
2021/11/15 15:45:20;;;;;;;19.27;9.73;;;;;;;6.95;100.00;99489.44;5075036;28;20052;-81
2021/11/15 15:47:51;;;;;;;18.10;9.15;;;;;;;7.04;100.00;99499.31;5066737;28;20480;-81
2021/11/15 15:50:19;;;;;;;21.13;9.85;;;;;;;6.93;100.00;99502.25;5075072;28;20049;-81
2021/11/15 15:52:48;;;;;;;18.52;9.65;;;;;;;6.85;100.00;99503.03;5074832;28;20045;-81
